sensor_id;sensor_type;location;lat;lon;timestamp;P1;durP1;ratioP1;P2;durP2;ratioP2
2624;SDS011;1322;53.256;10.386;2023-02-22T00:01:08;26.20;;;14.73;;
2624;SDS011;1322;53.256;10.386;2023-02-22T00:03:43;20.07;;;14.57;;
2624;SDS011;1322;53.256;10.386;2023-02-22T00:06:16;25.37;;;16.57;;
2624;SDS011;1322;53.256;10.386;2023-02-22T00:08:43;25.50;;;14.37;;
2624;SDS011;1322;53.256;10.386;2023-02-22T00:11:10;24.17;;;14.87;;
2624;SDS011;1322;53.256;10.386;2023-02-22T00:13:38;25.57;;;15.57;;
2624;SDS011;1322;53.256;10.386;2023-02-22T00:16:08;20.50;;;14.37;;
2624;SDS011;1322;53.256;10.386;2023-02-22T00:18:37;25.93;;;15.80;;
2624;SDS011;1322;53.256;10.386;2023-02-22T00:21:03;23.80;;;16.90;;
2624;SDS011;1322;53.256;10.386;2023-02-22T00:23:30;29.60;;;17.30;;
2624;SDS011;1322;53.256;10.386;2023-02-22T00:25:56;34.83;;;17.50;;
2624;SDS011;1322;53.256;10.386;2023-02-22T00:28:23;25.77;;;16.27;;
2624;SDS011;1322;53.256;10.386;2023-02-22T00:30:49;29.40;;;17.13;;
2624;SDS011;1322;53.256;10.386;2023-02-22T00:33:16;29.33;;;16.83;;
2624;SDS011;1322;53.256;10.386;2023-02-22T00:35:42;26.73;;;16.00;;
2624;SDS011;1322;53.256;10.386;2023-02-22T00:38:10;27.70;;;17.57;;
2624;SDS011;1322;53.256;10.386;2023-02-22T00:40:36;33.67;;;16.27;;
2624;SDS011;1322;53.256;10.386;2023-02-22T00:43:04;35.77;;;17.13;;
2624;SDS011;1322;53.256;10.386;2023-02-22T00:45:34;31.07;;;16.70;;
2624;SDS011;1322;53.256;10.386;2023-02-22T00:48:01;38.27;;;19.07;;
2624;SDS011;1322;53.256;10.386;2023-02-22T00:50:29;28.80;;;17.30;;
2624;SDS011;1322;53.256;10.386;2023-02-22T00:52:56;34.70;;;18.47;;
2624;SDS011;1322;53.256;10.386;2023-02-22T00:55:25;32.40;;;16.70;;
2624;SDS011;1322;53.256;10.386;2023-02-22T00:57:53;35.47;;;18.43;;
2624;SDS011;1322;53.256;10.386;2023-02-22T01:00:24;39.17;;;18.67;;
2624;SDS011;1322;53.256;10.386;2023-02-22T01:02:52;29.07;;;16.97;;
2624;SDS011;1322;53.256;10.386;2023-02-22T01:05:19;42.23;;;16.93;;
2624;SDS011;1322;53.256;10.386;2023-02-22T01:07:47;31.37;;;17.00;;
2624;SDS011;1322;53.256;10.386;2023-02-22T01:10:13;31.83;;;15.00;;
2624;SDS011;1322;53.256;10.386;2023-02-22T01:12:45;26.37;;;16.10;;
2624;SDS011;1322;53.256;10.386;2023-02-22T01:15:11;29.70;;;16.33;;
2624;SDS011;1322;53.256;10.386;2023-02-22T01:17:37;26.83;;;14.50;;
2624;SDS011;1322;53.256;10.386;2023-02-22T01:20:05;26.87;;;15.93;;
2624;SDS011;1322;53.256;10.386;2023-02-22T01:22:34;26.80;;;15.07;;
2624;SDS011;1322;53.256;10.386;2023-02-22T01:25:01;30.87;;;16.80;;
2624;SDS011;1322;53.256;10.386;2023-02-22T01:27:27;26.00;;;15.20;;
2624;SDS011;1322;53.256;10.386;2023-02-22T01:29:53;29.10;;;14.40;;
2624;SDS011;1322;53.256;10.386;2023-02-22T01:32:18;31.43;;;13.60;;
2624;SDS011;1322;53.256;10.386;2023-02-22T01:34:44;28.73;;;13.90;;
2624;SDS011;1322;53.256;10.386;2023-02-22T01:37:10;26.27;;;14.87;;
2624;SDS011;1322;53.256;10.386;2023-02-22T01:39:36;25.27;;;12.63;;
2624;SDS011;1322;53.256;10.386;2023-02-22T01:42:01;25.83;;;14.90;;
2624;SDS011;1322;53.256;10.386;2023-02-22T01:46:58;32.80;;;15.90;;
2624;SDS011;1322;53.256;10.386;2023-02-22T01:49:31;27.30;;;13.80;;
2624;SDS011;1322;53.256;10.386;2023-02-22T01:52:02;26.40;;;12.40;;
2624;SDS011;1322;53.256;10.386;2023-02-22T01:54:32;29.00;;;14.40;;
2624;SDS011;1322;53.256;10.386;2023-02-22T01:57:07;30.60;;;13.90;;
2624;SDS011;1322;53.256;10.386;2023-02-22T01:59:39;32.20;;;15.73;;
2624;SDS011;1322;53.256;10.386;2023-02-22T02:02:08;33.17;;;15.23;;
2624;SDS011;1322;53.256;10.386;2023-02-22T02:04:35;30.40;;;15.73;;
2624;SDS011;1322;53.256;10.386;2023-02-22T02:07:02;39.50;;;16.20;;
2624;SDS011;1322;53.256;10.386;2023-02-22T02:09:39;32.40;;;16.00;;
2624;SDS011;1322;53.256;10.386;2023-02-22T02:12:17;28.40;;;14.57;;
2624;SDS011;1322;53.256;10.386;2023-02-22T02:14:45;27.87;;;15.03;;
2624;SDS011;1322;53.256;10.386;2023-02-22T02:17:11;27.40;;;15.47;;
2624;SDS011;1322;53.256;10.386;2023-02-22T02:28:16;34.60;;;14.00;;
2624;SDS011;1322;53.256;10.386;2023-02-22T02:30:48;32.90;;;14.50;;
2624;SDS011;1322;53.256;10.386;2023-02-22T02:39:33;27.60;;;13.87;;
2624;SDS011;1322;53.256;10.386;2023-02-22T02:42:07;32.07;;;14.60;;
2624;SDS011;1322;53.256;10.386;2023-02-22T02:44:38;32.97;;;14.67;;
2624;SDS011;1322;53.256;10.386;2023-02-22T02:47:26;29.60;;;13.80;;
2624;SDS011;1322;53.256;10.386;2023-02-22T02:50:04;34.03;;;15.57;;
2624;SDS011;1322;53.256;10.386;2023-02-22T02:52:34;32.33;;;13.70;;
2624;SDS011;1322;53.256;10.386;2023-02-22T02:55:03;31.73;;;14.60;;
2624;SDS011;1322;53.256;10.386;2023-02-22T02:57:30;28.10;;;12.63;;
2624;SDS011;1322;53.256;10.386;2023-02-22T02:59:56;27.03;;;13.23;;
2624;SDS011;1322;53.256;10.386;2023-02-22T03:02:41;26.23;;;13.00;;
2624;SDS011;1322;53.256;10.386;2023-02-22T03:08:08;27.07;;;11.80;;
2624;SDS011;1322;53.256;10.386;2023-02-22T03:13:49;23.70;;;11.87;;
2624;SDS011;1322;53.256;10.386;2023-02-22T03:19:21;26.10;;;11.53;;
2624;SDS011;1322;53.256;10.386;2023-02-22T03:24:53;27.60;;;11.10;;
2624;SDS011;1322;53.256;10.386;2023-02-22T03:30:04;21.07;;;11.10;;
2624;SDS011;1322;53.256;10.386;2023-02-22T03:32:34;23.83;;;10.60;;
2624;SDS011;1322;53.256;10.386;2023-02-22T03:35:07;23.30;;;10.47;;
2624;SDS011;1322;53.256;10.386;2023-02-22T03:37:38;26.67;;;12.10;;
2624;SDS011;1322;53.256;10.386;2023-02-22T03:40:09;22.07;;;11.37;;
2624;SDS011;1322;53.256;10.386;2023-02-22T03:42:40;23.77;;;11.67;;
2624;SDS011;1322;53.256;10.386;2023-02-22T03:45:13;17.80;;;10.00;;
2624;SDS011;1322;53.256;10.386;2023-02-22T03:47:45;20.30;;;11.47;;
2624;SDS011;1322;53.256;10.386;2023-02-22T03:50:19;21.60;;;12.00;;
2624;SDS011;1322;53.256;10.386;2023-02-22T03:52:50;24.33;;;11.10;;
2624;SDS011;1322;53.256;10.386;2023-02-22T03:55:16;22.57;;;12.40;;
2624;SDS011;1322;53.256;10.386;2023-02-22T03:57:44;24.67;;;10.20;;
2624;SDS011;1322;53.256;10.386;2023-02-22T04:00:15;23.20;;;11.93;;
2624;SDS011;1322;53.256;10.386;2023-02-22T04:02:44;22.43;;;13.27;;
2624;SDS011;1322;53.256;10.386;2023-02-22T04:05:10;24.60;;;12.63;;
2624;SDS011;1322;53.256;10.386;2023-02-22T04:07:38;25.87;;;13.40;;
2624;SDS011;1322;53.256;10.386;2023-02-22T04:10:04;22.73;;;11.77;;
2624;SDS011;1322;53.256;10.386;2023-02-22T04:12:32;25.43;;;12.67;;
2624;SDS011;1322;53.256;10.386;2023-02-22T04:14:58;24.63;;;13.20;;
2624;SDS011;1322;53.256;10.386;2023-02-22T04:17:24;26.87;;;12.93;;
2624;SDS011;1322;53.256;10.386;2023-02-22T04:19:49;22.30;;;11.60;;
2624;SDS011;1322;53.256;10.386;2023-02-22T04:22:15;25.57;;;12.30;;
2624;SDS011;1322;53.256;10.386;2023-02-22T04:24:41;27.60;;;11.87;;
2624;SDS011;1322;53.256;10.386;2023-02-22T04:27:07;23.60;;;11.43;;
2624;SDS011;1322;53.256;10.386;2023-02-22T04:29:33;22.73;;;12.17;;
2624;SDS011;1322;53.256;10.386;2023-02-22T04:31:58;22.70;;;11.37;;
2624;SDS011;1322;53.256;10.386;2023-02-22T04:34:24;23.03;;;12.20;;
2624;SDS011;1322;53.256;10.386;2023-02-22T04:36:49;28.33;;;12.57;;
2624;SDS011;1322;53.256;10.386;2023-02-22T04:39:16;22.90;;;11.97;;
2624;SDS011;1322;53.256;10.386;2023-02-22T04:41:41;21.57;;;10.47;;
2624;SDS011;1322;53.256;10.386;2023-02-22T04:44:07;26.53;;;12.43;;
2624;SDS011;1322;53.256;10.386;2023-02-22T04:46:33;23.47;;;10.83;;
2624;SDS011;1322;53.256;10.386;2023-02-22T04:48:58;24.20;;;11.73;;
2624;SDS011;1322;53.256;10.386;2023-02-22T04:51:24;22.17;;;11.90;;
2624;SDS011;1322;53.256;10.386;2023-02-22T04:53:53;19.50;;;11.00;;
2624;SDS011;1322;53.256;10.386;2023-02-22T04:56:18;21.17;;;11.63;;
2624;SDS011;1322;53.256;10.386;2023-02-22T04:58:44;18.73;;;11.13;;
2624;SDS011;1322;53.256;10.386;2023-02-22T05:01:10;23.33;;;11.30;;
2624;SDS011;1322;53.256;10.386;2023-02-22T05:03:36;21.50;;;10.90;;
2624;SDS011;1322;53.256;10.386;2023-02-22T05:06:02;30.80;;;12.60;;
2624;SDS011;1322;53.256;10.386;2023-02-22T05:08:28;26.00;;;14.13;;
2624;SDS011;1322;53.256;10.386;2023-02-22T05:10:53;17.73;;;10.20;;
2624;SDS011;1322;53.256;10.386;2023-02-22T05:13:19;24.83;;;11.50;;
2624;SDS011;1322;53.256;10.386;2023-02-22T05:15:45;21.63;;;11.70;;
2624;SDS011;1322;53.256;10.386;2023-02-22T05:18:12;28.03;;;13.37;;
2624;SDS011;1322;53.256;10.386;2023-02-22T05:20:38;22.00;;;12.60;;
2624;SDS011;1322;53.256;10.386;2023-02-22T05:23:04;22.77;;;10.83;;
2624;SDS011;1322;53.256;10.386;2023-02-22T05:25:30;22.03;;;11.43;;
2624;SDS011;1322;53.256;10.386;2023-02-22T05:27:59;20.17;;;12.13;;
2624;SDS011;1322;53.256;10.386;2023-02-22T05:30:28;19.33;;;10.93;;
2624;SDS011;1322;53.256;10.386;2023-02-22T05:32:59;21.10;;;12.03;;
2624;SDS011;1322;53.256;10.386;2023-02-22T05:35:25;26.73;;;12.73;;
2624;SDS011;1322;53.256;10.386;2023-02-22T05:37:52;29.03;;;11.83;;
2624;SDS011;1322;53.256;10.386;2023-02-22T05:40:20;24.37;;;12.63;;
2624;SDS011;1322;53.256;10.386;2023-02-22T05:42:50;25.50;;;12.60;;
2624;SDS011;1322;53.256;10.386;2023-02-22T05:45:17;22.63;;;12.47;;
2624;SDS011;1322;53.256;10.386;2023-02-22T05:47:45;21.23;;;12.17;;
2624;SDS011;1322;53.256;10.386;2023-02-22T05:50:11;27.27;;;13.40;;
2624;SDS011;1322;53.256;10.386;2023-02-22T05:52:38;26.33;;;13.40;;
2624;SDS011;1322;53.256;10.386;2023-02-22T05:55:04;25.53;;;12.97;;
2624;SDS011;1322;53.256;10.386;2023-02-22T05:57:30;21.43;;;12.70;;
2624;SDS011;1322;53.256;10.386;2023-02-22T05:59:56;29.60;;;14.03;;
2624;SDS011;1322;53.256;10.386;2023-02-22T06:02:22;29.73;;;14.60;;
2624;SDS011;1322;53.256;10.386;2023-02-22T06:04:47;21.07;;;11.67;;
2624;SDS011;1322;53.256;10.386;2023-02-22T06:07:13;24.77;;;12.57;;
2624;SDS011;1322;53.256;10.386;2023-02-22T06:09:39;23.13;;;12.53;;
2624;SDS011;1322;53.256;10.386;2023-02-22T06:12:05;25.23;;;12.00;;
2624;SDS011;1322;53.256;10.386;2023-02-22T06:14:31;23.77;;;13.57;;
2624;SDS011;1322;53.256;10.386;2023-02-22T06:16:57;25.83;;;12.00;;
2624;SDS011;1322;53.256;10.386;2023-02-22T06:19:24;24.70;;;13.27;;
2624;SDS011;1322;53.256;10.386;2023-02-22T06:21:51;33.60;;;14.17;;
2624;SDS011;1322;53.256;10.386;2023-02-22T06:24:19;29.83;;;14.77;;
2624;SDS011;1322;53.256;10.386;2023-02-22T06:26:45;27.30;;;14.37;;
2624;SDS011;1322;53.256;10.386;2023-02-22T06:29:11;27.07;;;13.13;;
2624;SDS011;1322;53.256;10.386;2023-02-22T06:31:36;27.47;;;13.23;;
2624;SDS011;1322;53.256;10.386;2023-02-22T06:34:03;30.10;;;14.10;;
2624;SDS011;1322;53.256;10.386;2023-02-22T06:36:28;34.77;;;14.27;;
2624;SDS011;1322;53.256;10.386;2023-02-22T06:38:55;36.60;;;15.43;;
2624;SDS011;1322;53.256;10.386;2023-02-22T06:41:21;35.53;;;14.20;;
2624;SDS011;1322;53.256;10.386;2023-02-22T06:43:47;39.63;;;15.60;;
2624;SDS011;1322;53.256;10.386;2023-02-22T06:46:13;31.40;;;15.13;;
2624;SDS011;1322;53.256;10.386;2023-02-22T06:48:38;30.93;;;14.20;;
2624;SDS011;1322;53.256;10.386;2023-02-22T06:51:06;32.57;;;14.93;;
2624;SDS011;1322;53.256;10.386;2023-02-22T06:53:32;32.70;;;13.10;;
2624;SDS011;1322;53.256;10.386;2023-02-22T06:55:58;31.00;;;14.07;;
2624;SDS011;1322;53.256;10.386;2023-02-22T06:58:24;33.37;;;13.87;;
2624;SDS011;1322;53.256;10.386;2023-02-22T07:00:51;34.30;;;14.30;;
2624;SDS011;1322;53.256;10.386;2023-02-22T07:03:17;38.13;;;15.37;;
2624;SDS011;1322;53.256;10.386;2023-02-22T07:05:42;37.17;;;13.50;;
2624;SDS011;1322;53.256;10.386;2023-02-22T07:08:08;34.80;;;14.67;;
2624;SDS011;1322;53.256;10.386;2023-02-22T07:10:35;41.20;;;16.67;;
2624;SDS011;1322;53.256;10.386;2023-02-22T07:13:02;37.63;;;15.73;;
2624;SDS011;1322;53.256;10.386;2023-02-22T07:15:29;31.83;;;14.67;;
2624;SDS011;1322;53.256;10.386;2023-02-22T07:17:56;33.50;;;15.43;;
2624;SDS011;1322;53.256;10.386;2023-02-22T07:20:23;33.20;;;14.97;;
2624;SDS011;1322;53.256;10.386;2023-02-22T07:22:50;32.57;;;15.13;;
2624;SDS011;1322;53.256;10.386;2023-02-22T07:25:16;35.83;;;16.00;;
2624;SDS011;1322;53.256;10.386;2023-02-22T07:27:43;33.17;;;16.53;;
2624;SDS011;1322;53.256;10.386;2023-02-22T07:30:30;30.60;;;15.27;;
2624;SDS011;1322;53.256;10.386;2023-02-22T07:32:56;35.43;;;15.10;;
2624;SDS011;1322;53.256;10.386;2023-02-22T07:35:27;32.73;;;16.70;;
2624;SDS011;1322;53.256;10.386;2023-02-22T07:37:54;33.77;;;15.43;;
2624;SDS011;1322;53.256;10.386;2023-02-22T07:40:20;33.17;;;15.30;;
2624;SDS011;1322;53.256;10.386;2023-02-22T07:42:56;30.63;;;15.23;;
2624;SDS011;1322;53.256;10.386;2023-02-22T07:45:23;32.03;;;16.60;;
2624;SDS011;1322;53.256;10.386;2023-02-22T07:47:51;36.70;;;15.90;;
2624;SDS011;1322;53.256;10.386;2023-02-22T07:50:17;31.17;;;16.50;;
2624;SDS011;1322;53.256;10.386;2023-02-22T07:52:47;36.23;;;17.13;;
2624;SDS011;1322;53.256;10.386;2023-02-22T07:55:15;32.50;;;18.17;;
2624;SDS011;1322;53.256;10.386;2023-02-22T07:57:47;35.70;;;16.23;;
2624;SDS011;1322;53.256;10.386;2023-02-22T08:00:14;30.03;;;16.67;;
2624;SDS011;1322;53.256;10.386;2023-02-22T08:02:45;30.30;;;14.10;;
2624;SDS011;1322;53.256;10.386;2023-02-22T08:05:12;26.90;;;14.17;;
2624;SDS011;1322;53.256;10.386;2023-02-22T08:07:39;30.13;;;15.57;;
2624;SDS011;1322;53.256;10.386;2023-02-22T08:10:06;31.20;;;15.33;;
2624;SDS011;1322;53.256;10.386;2023-02-22T08:12:32;35.47;;;16.47;;
2624;SDS011;1322;53.256;10.386;2023-02-22T08:14:58;35.03;;;17.33;;
2624;SDS011;1322;53.256;10.386;2023-02-22T08:17:24;32.37;;;15.87;;
2624;SDS011;1322;53.256;10.386;2023-02-22T08:19:50;33.17;;;14.97;;
2624;SDS011;1322;53.256;10.386;2023-02-22T08:22:15;28.90;;;14.87;;
2624;SDS011;1322;53.256;10.386;2023-02-22T08:24:43;33.03;;;17.07;;
2624;SDS011;1322;53.256;10.386;2023-02-22T08:27:09;29.03;;;15.33;;
2624;SDS011;1322;53.256;10.386;2023-02-22T08:29:34;32.97;;;15.40;;
2624;SDS011;1322;53.256;10.386;2023-02-22T08:32:00;30.47;;;15.10;;
2624;SDS011;1322;53.256;10.386;2023-02-22T08:34:26;31.17;;;16.07;;
2624;SDS011;1322;53.256;10.386;2023-02-22T08:36:52;32.53;;;17.27;;
2624;SDS011;1322;53.256;10.386;2023-02-22T08:39:18;33.77;;;15.80;;
2624;SDS011;1322;53.256;10.386;2023-02-22T08:41:43;30.63;;;15.67;;
2624;SDS011;1322;53.256;10.386;2023-02-22T08:44:09;34.60;;;16.30;;
2624;SDS011;1322;53.256;10.386;2023-02-22T08:46:35;29.60;;;16.17;;
2624;SDS011;1322;53.256;10.386;2023-02-22T08:49:00;33.20;;;17.13;;
2624;SDS011;1322;53.256;10.386;2023-02-22T08:51:27;33.10;;;16.10;;
2624;SDS011;1322;53.256;10.386;2023-02-22T08:53:58;30.93;;;16.43;;
2624;SDS011;1322;53.256;10.386;2023-02-22T08:56:23;27.93;;;14.23;;
2624;SDS011;1322;53.256;10.386;2023-02-22T08:58:49;36.57;;;16.77;;
2624;SDS011;1322;53.256;10.386;2023-02-22T09:01:14;26.57;;;14.73;;
2624;SDS011;1322;53.256;10.386;2023-02-22T09:03:40;34.60;;;16.40;;
2624;SDS011;1322;53.256;10.386;2023-02-22T09:06:06;30.50;;;17.13;;
2624;SDS011;1322;53.256;10.386;2023-02-22T09:08:31;33.57;;;15.40;;
2624;SDS011;1322;53.256;10.386;2023-02-22T09:10:57;38.27;;;18.00;;
2624;SDS011;1322;53.256;10.386;2023-02-22T09:13:23;29.57;;;16.70;;
2624;SDS011;1322;53.256;10.386;2023-02-22T09:15:48;27.43;;;16.87;;
2624;SDS011;1322;53.256;10.386;2023-02-22T09:18:14;39.00;;;17.87;;
2624;SDS011;1322;53.256;10.386;2023-02-22T09:20:41;33.77;;;17.33;;
2624;SDS011;1322;53.256;10.386;2023-02-22T09:23:08;34.23;;;17.43;;
2624;SDS011;1322;53.256;10.386;2023-02-22T09:25:34;31.80;;;17.97;;
2624;SDS011;1322;53.256;10.386;2023-02-22T09:28:00;34.87;;;18.83;;
2624;SDS011;1322;53.256;10.386;2023-02-22T09:30:32;38.33;;;20.77;;
2624;SDS011;1322;53.256;10.386;2023-02-22T09:33:00;32.40;;;18.07;;
2624;SDS011;1322;53.256;10.386;2023-02-22T09:35:29;36.83;;;20.60;;
2624;SDS011;1322;53.256;10.386;2023-02-22T09:37:55;36.83;;;18.80;;
2624;SDS011;1322;53.256;10.386;2023-02-22T09:40:23;37.93;;;20.07;;
2624;SDS011;1322;53.256;10.386;2023-02-22T09:45:42;36.40;;;20.10;;
2624;SDS011;1322;53.256;10.386;2023-02-22T09:48:31;32.77;;;19.00;;
2624;SDS011;1322;53.256;10.386;2023-02-22T09:51:00;36.13;;;21.40;;
2624;SDS011;1322;53.256;10.386;2023-02-22T09:53:39;39.40;;;21.00;;
2624;SDS011;1322;53.256;10.386;2023-02-22T09:56:10;35.90;;;19.33;;
2624;SDS011;1322;53.256;10.386;2023-02-22T09:58:39;34.47;;;19.03;;
2624;SDS011;1322;53.256;10.386;2023-02-22T10:01:18;38.93;;;21.33;;
2624;SDS011;1322;53.256;10.386;2023-02-22T10:10:01;38.97;;;20.37;;
2624;SDS011;1322;53.256;10.386;2023-02-22T10:20:45;33.33;;;19.67;;
2624;SDS011;1322;53.256;10.386;2023-02-22T10:23:33;36.63;;;21.97;;
2624;SDS011;1322;53.256;10.386;2023-02-22T10:28:43;36.30;;;20.30;;
2624;SDS011;1322;53.256;10.386;2023-02-22T10:31:39;38.77;;;21.07;;
2624;SDS011;1322;53.256;10.386;2023-02-22T10:34:16;30.43;;;19.00;;
2624;SDS011;1322;53.256;10.386;2023-02-22T10:36:49;34.93;;;19.93;;
2624;SDS011;1322;53.256;10.386;2023-02-22T10:39:29;37.10;;;19.70;;
2624;SDS011;1322;53.256;10.386;2023-02-22T10:41:58;33.93;;;18.97;;
2624;SDS011;1322;53.256;10.386;2023-02-22T10:44:33;37.13;;;21.60;;
2624;SDS011;1322;53.256;10.386;2023-02-22T10:46:59;37.80;;;20.50;;
2624;SDS011;1322;53.256;10.386;2023-02-22T10:49:30;34.57;;;20.00;;
2624;SDS011;1322;53.256;10.386;2023-02-22T10:52:02;30.53;;;19.07;;
2624;SDS011;1322;53.256;10.386;2023-02-22T10:54:38;34.60;;;20.23;;
2624;SDS011;1322;53.256;10.386;2023-02-22T10:57:06;27.20;;;17.17;;
2624;SDS011;1322;53.256;10.386;2023-02-22T10:59:33;31.67;;;17.43;;
2624;SDS011;1322;53.256;10.386;2023-02-22T11:02:07;31.53;;;16.70;;
2624;SDS011;1322;53.256;10.386;2023-02-22T11:04:45;25.87;;;17.00;;
2624;SDS011;1322;53.256;10.386;2023-02-22T11:07:17;26.53;;;16.60;;
2624;SDS011;1322;53.256;10.386;2023-02-22T11:10:04;32.90;;;18.20;;
2624;SDS011;1322;53.256;10.386;2023-02-22T11:12:35;25.40;;;16.20;;
2624;SDS011;1322;53.256;10.386;2023-02-22T11:17:41;25.63;;;15.57;;
2624;SDS011;1322;53.256;10.386;2023-02-22T11:20:17;28.03;;;17.40;;
2624;SDS011;1322;53.256;10.386;2023-02-22T11:22:49;26.70;;;16.30;;
2624;SDS011;1322;53.256;10.386;2023-02-22T11:25:20;24.60;;;15.10;;
2624;SDS011;1322;53.256;10.386;2023-02-22T11:27:49;27.10;;;16.00;;
2624;SDS011;1322;53.256;10.386;2023-02-22T11:32:46;22.90;;;13.97;;
2624;SDS011;1322;53.256;10.386;2023-02-22T11:37:53;30.73;;;17.20;;
2624;SDS011;1322;53.256;10.386;2023-02-22T11:40:34;25.67;;;15.77;;
2624;SDS011;1322;53.256;10.386;2023-02-22T11:43:07;23.90;;;16.00;;
2624;SDS011;1322;53.256;10.386;2023-02-22T11:45:39;22.00;;;15.03;;
2624;SDS011;1322;53.256;10.386;2023-02-22T11:48:38;25.30;;;15.07;;
2624;SDS011;1322;53.256;10.386;2023-02-22T11:56:36;21.67;;;14.40;;
2624;SDS011;1322;53.256;10.386;2023-02-22T12:01:54;20.73;;;13.00;;
2624;SDS011;1322;53.256;10.386;2023-02-22T12:04:58;20.63;;;13.67;;
2624;SDS011;1322;53.256;10.386;2023-02-22T12:18:57;19.40;;;12.23;;
2624;SDS011;1322;53.256;10.386;2023-02-22T12:21:46;17.60;;;11.27;;
2624;SDS011;1322;53.256;10.386;2023-02-22T12:24:21;17.47;;;11.00;;
2624;SDS011;1322;53.256;10.386;2023-02-22T12:27:34;17.17;;;10.83;;
2624;SDS011;1322;53.256;10.386;2023-02-22T12:29:56;15.50;;;10.37;;
2624;SDS011;1322;53.256;10.386;2023-02-22T12:32:38;16.27;;;9.80;;
2624;SDS011;1322;53.256;10.386;2023-02-22T12:38:03;15.33;;;9.43;;
2624;SDS011;1322;53.256;10.386;2023-02-22T12:40:47;14.63;;;10.20;;
2624;SDS011;1322;53.256;10.386;2023-02-22T12:48:59;18.13;;;10.10;;
2624;SDS011;1322;53.256;10.386;2023-02-22T12:59:28;11.17;;;8.00;;
2624;SDS011;1322;53.256;10.386;2023-02-22T13:04:39;13.43;;;8.53;;
2624;SDS011;1322;53.256;10.386;2023-02-22T13:10:09;14.40;;;8.80;;
2624;SDS011;1322;53.256;10.386;2023-02-22T13:18:27;14.97;;;10.03;;
2624;SDS011;1322;53.256;10.386;2023-02-22T13:21:07;16.97;;;9.90;;
2624;SDS011;1322;53.256;10.386;2023-02-22T13:23:44;14.80;;;9.23;;
2624;SDS011;1322;53.256;10.386;2023-02-22T13:26:31;17.40;;;9.43;;
2624;SDS011;1322;53.256;10.386;2023-02-22T13:40:21;16.37;;;8.60;;
2624;SDS011;1322;53.256;10.386;2023-02-22T13:43:19;18.13;;;10.40;;
2624;SDS011;1322;53.256;10.386;2023-02-22T13:54:20;15.63;;;10.60;;
2624;SDS011;1322;53.256;10.386;2023-02-22T13:57:16;17.40;;;11.27;;
2624;SDS011;1322;53.256;10.386;2023-02-22T13:59:46;18.67;;;10.87;;
2624;SDS011;1322;53.256;10.386;2023-02-22T14:02:31;20.67;;;11.17;;
2624;SDS011;1322;53.256;10.386;2023-02-22T14:05:16;19.77;;;11.50;;
2624;SDS011;1322;53.256;10.386;2023-02-22T14:13:11;15.27;;;10.60;;
2624;SDS011;1322;53.256;10.386;2023-02-22T14:16:14;16.57;;;11.57;;
2624;SDS011;1322;53.256;10.386;2023-02-22T14:18:39;18.40;;;10.40;;
2624;SDS011;1322;53.256;10.386;2023-02-22T14:23:41;16.73;;;10.90;;
2624;SDS011;1322;53.256;10.386;2023-02-22T14:26:09;21.43;;;11.67;;
2624;SDS011;1322;53.256;10.386;2023-02-22T14:28:43;19.10;;;12.23;;
2624;SDS011;1322;53.256;10.386;2023-02-22T14:36:31;17.00;;;11.70;;
2624;SDS011;1322;53.256;10.386;2023-02-22T14:41:34;16.00;;;11.57;;
2624;SDS011;1322;53.256;10.386;2023-02-22T14:44:03;21.80;;;13.67;;
2624;SDS011;1322;53.256;10.386;2023-02-22T14:46:31;16.80;;;11.30;;
2624;SDS011;1322;53.256;10.386;2023-02-22T14:49:04;19.17;;;11.53;;
2624;SDS011;1322;53.256;10.386;2023-02-22T14:51:39;17.73;;;12.60;;
2624;SDS011;1322;53.256;10.386;2023-02-22T14:56:56;14.73;;;10.83;;
2624;SDS011;1322;53.256;10.386;2023-02-22T14:59:55;25.67;;;11.77;;
2624;SDS011;1322;53.256;10.386;2023-02-22T15:02:45;17.00;;;11.23;;
2624;SDS011;1322;53.256;10.386;2023-02-22T15:05:13;22.30;;;12.20;;
2624;SDS011;1322;53.256;10.386;2023-02-22T15:07:49;20.40;;;12.00;;
2624;SDS011;1322;53.256;10.386;2023-02-22T15:10:23;17.90;;;11.60;;
2624;SDS011;1322;53.256;10.386;2023-02-22T15:13:20;18.20;;;11.73;;
2624;SDS011;1322;53.256;10.386;2023-02-22T15:20:57;17.20;;;11.60;;
2624;SDS011;1322;53.256;10.386;2023-02-22T15:23:29;18.37;;;12.60;;
2624;SDS011;1322;53.256;10.386;2023-02-22T15:26:05;20.87;;;12.00;;
2624;SDS011;1322;53.256;10.386;2023-02-22T15:28:31;20.43;;;12.17;;
2624;SDS011;1322;53.256;10.386;2023-02-22T15:31:17;20.83;;;12.60;;
2624;SDS011;1322;53.256;10.386;2023-02-22T15:33:48;20.10;;;12.97;;
2624;SDS011;1322;53.256;10.386;2023-02-22T15:36:17;18.60;;;11.40;;
2624;SDS011;1322;53.256;10.386;2023-02-22T15:38:48;19.73;;;11.00;;
2624;SDS011;1322;53.256;10.386;2023-02-22T15:41:19;20.20;;;11.57;;
2624;SDS011;1322;53.256;10.386;2023-02-22T15:46:24;20.33;;;12.73;;
2624;SDS011;1322;53.256;10.386;2023-02-22T15:51:52;20.10;;;12.77;;
2624;SDS011;1322;53.256;10.386;2023-02-22T15:54:28;21.47;;;13.93;;
2624;SDS011;1322;53.256;10.386;2023-02-22T15:56:55;20.40;;;12.27;;
2624;SDS011;1322;53.256;10.386;2023-02-22T15:59:21;21.30;;;13.67;;
2624;SDS011;1322;53.256;10.386;2023-02-22T16:01:53;19.80;;;12.00;;
2624;SDS011;1322;53.256;10.386;2023-02-22T16:04:22;19.13;;;12.37;;
2624;SDS011;1322;53.256;10.386;2023-02-22T16:06:50;22.77;;;12.73;;
2624;SDS011;1322;53.256;10.386;2023-02-22T16:09:26;20.43;;;12.00;;
2624;SDS011;1322;53.256;10.386;2023-02-22T16:12:07;24.57;;;12.90;;
2624;SDS011;1322;53.256;10.386;2023-02-22T16:14:47;20.97;;;11.87;;
2624;SDS011;1322;53.256;10.386;2023-02-22T16:19:49;20.67;;;13.67;;
2624;SDS011;1322;53.256;10.386;2023-02-22T16:24:50;23.57;;;13.50;;
2624;SDS011;1322;53.256;10.386;2023-02-22T16:27:19;27.97;;;13.53;;
2624;SDS011;1322;53.256;10.386;2023-02-22T16:32:41;20.17;;;12.83;;
2624;SDS011;1322;53.256;10.386;2023-02-22T16:35:07;21.60;;;13.70;;
2624;SDS011;1322;53.256;10.386;2023-02-22T16:37:41;20.50;;;12.70;;
2624;SDS011;1322;53.256;10.386;2023-02-22T16:40:11;22.53;;;14.87;;
2624;SDS011;1322;53.256;10.386;2023-02-22T16:42:46;21.43;;;12.60;;
2624;SDS011;1322;53.256;10.386;2023-02-22T16:45:15;23.63;;;12.83;;
2624;SDS011;1322;53.256;10.386;2023-02-22T16:47:45;21.03;;;13.87;;
2624;SDS011;1322;53.256;10.386;2023-02-22T16:50:11;19.30;;;11.67;;
2624;SDS011;1322;53.256;10.386;2023-02-22T16:52:38;23.90;;;14.03;;
2624;SDS011;1322;53.256;10.386;2023-02-22T16:55:05;24.23;;;13.10;;
2624;SDS011;1322;53.256;10.386;2023-02-22T16:57:35;22.20;;;13.80;;
2624;SDS011;1322;53.256;10.386;2023-02-22T17:00:03;25.30;;;12.97;;
2624;SDS011;1322;53.256;10.386;2023-02-22T17:02:37;24.47;;;13.27;;
2624;SDS011;1322;53.256;10.386;2023-02-22T17:05:03;20.20;;;12.43;;
2624;SDS011;1322;53.256;10.386;2023-02-22T17:07:29;20.07;;;13.23;;
2624;SDS011;1322;53.256;10.386;2023-02-22T17:09:55;22.73;;;13.27;;
2624;SDS011;1322;53.256;10.386;2023-02-22T17:12:25;20.83;;;11.20;;
2624;SDS011;1322;53.256;10.386;2023-02-22T17:14:53;23.37;;;14.07;;
2624;SDS011;1322;53.256;10.386;2023-02-22T17:17:18;18.90;;;12.20;;
2624;SDS011;1322;53.256;10.386;2023-02-22T17:19:44;20.13;;;11.90;;
2624;SDS011;1322;53.256;10.386;2023-02-22T17:22:19;23.73;;;13.70;;
2624;SDS011;1322;53.256;10.386;2023-02-22T17:24:46;20.40;;;12.73;;
2624;SDS011;1322;53.256;10.386;2023-02-22T17:27:11;19.93;;;12.57;;
2624;SDS011;1322;53.256;10.386;2023-02-22T17:29:38;19.67;;;12.10;;
2624;SDS011;1322;53.256;10.386;2023-02-22T17:32:05;19.07;;;12.90;;
2624;SDS011;1322;53.256;10.386;2023-02-22T17:34:31;20.70;;;13.07;;
2624;SDS011;1322;53.256;10.386;2023-02-22T17:36:57;23.97;;;14.30;;